Terminal Aerodrome Forecast
Issued by NWS

Home | Current Version | Previous Version | Text Only | Print | Product List | Glossary Off
Versions: 1 2 3 4 5 6 7 8 9 10 11 12 13 14 15 16 17 18 19 20 21 22 23 24 25 26 27 28 29

000
FTUS43 KLOT 162101 AAA
TAFMDW
TAF AMD
KMDW 162101Z 1621/1724 30018G26KT P6SM -SHSN OVC025
     FM170000 30016G25KT P6SM OVC025
     FM171100 29013G20KT P6SM BKN030
     FM171500 31011KT P6SM BKN035
     FM172200 03006KT P6SM SCT040=

USA.gov is the U.S. government's official web portal to all federal, state and local government web resources and services.